Time;durP1;ratioP1;P1;durP2;ratioP2;P2;SDS_P1;SDS_P2;PMS_P1;PMS_P2;Temp;Humidity;BMP_temperature;BMP_pressure;BME280_temperature;BME280_humidity;BME280_pressure;Samples;Min_cycle;Max_cycle;Signal;HPM_P1;HPM_P2
2021/05/19 00:01:35;;;;;;;6.55;4.75;;;;;;;12.73;66.41;99767.84;4963081;28;101658;-85
2021/05/19 00:04:01;;;;;;;8.65;4.40;;;;;;;12.85;65.94;99772.47;4964405;28;96576;-85
2021/05/19 00:06:26;;;;;;;7.50;4.90;;;;;;;12.82;65.96;99776.13;4979772;28;96805;-84
2021/05/19 00:08:52;;;;;;;6.43;5.00;;;;;;;12.74;65.41;99770.44;4980256;28;98403;-85
2021/05/19 00:11:17;;;;;;;11.15;5.70;;;;;;;12.62;65.98;99773.66;4961329;28;100642;-83
2021/05/19 00:13:43;;;;;;;9.50;5.80;;;;;;;12.56;65.90;99768.72;4958440;28;97239;-85
2021/05/19 00:16:09;;;;;;;8.00;4.78;;;;;;;12.43;66.33;99777.25;4977653;28;97321;-85
2021/05/19 00:18:35;;;;;;;8.45;5.40;;;;;;;12.41;66.54;99771.19;4946502;28;100060;-84
2021/05/19 00:21:01;;;;;;;7.60;5.10;;;;;;;12.45;66.12;99774.53;4989114;28;100487;-84
2021/05/19 00:23:27;;;;;;;6.68;4.50;;;;;;;12.50;66.11;99774.28;4976869;28;97058;-84
2021/05/19 00:25:52;;;;;;;10.10;5.38;;;;;;;12.49;66.03;99773.44;4994226;28;96764;-85
2021/05/19 00:28:19;;;;;;;8.00;5.22;;;;;;;12.64;65.20;99777.94;4960687;28;100010;-84
2021/05/19 00:30:47;;;;;;;7.60;4.95;;;;;;;12.57;65.69;99770.44;5009871;28;98319;-85
2021/05/19 00:33:13;;;;;;;8.30;5.10;;;;;;;12.52;65.96;99769.81;4961882;28;96967;-85
2021/05/19 00:35:39;;;;;;;7.40;5.07;;;;;;;12.41;65.70;99776.44;4976950;28;97212;-85
2021/05/19 00:38:04;;;;;;;6.53;4.97;;;;;;;12.33;66.06;99770.72;4961034;28;100939;-84
2021/05/19 00:40:30;;;;;;;7.53;5.25;;;;;;;12.29;66.06;99771.81;4960822;28;100012;-84
2021/05/19 00:42:58;;;;;;;8.93;5.35;;;;;;;12.22;66.37;99770.44;4962046;28;96548;-84
2021/05/19 00:45:23;;;;;;;8.52;5.18;;;;;;;12.22;66.15;99775.69;5011788;28;96799;-84
2021/05/19 00:47:49;;;;;;;6.63;4.93;;;;;;;12.20;66.24;99777.53;4961470;28;99019;-84
2021/05/19 00:50:21;;;;;;;10.13;5.10;;;;;;;12.24;65.77;99771.19;4977785;28;99591;-83
2021/05/19 00:52:47;;;;;;;6.38;4.22;;;;;;;12.32;65.71;99781.34;4994669;28;96956;-83
2021/05/19 00:55:14;;;;;;;8.60;5.20;;;;;;;12.28;65.95;99774.53;5012100;28;96871;-84
2021/05/19 00:57:40;;;;;;;8.93;5.38;;;;;;;12.27;66.02;99778.91;4960756;28;100386;-83
2021/05/19 01:00:10;;;;;;;8.35;4.95;;;;;;;12.34;65.21;99784.75;4977222;28;99584;-83
2021/05/19 01:03:08;;;;;;;7.10;4.88;;;;;;;12.25;65.50;99786.06;4972758;28;97270;-83
2021/05/19 01:05:40;;;;;;;6.45;4.68;;;;;;;12.12;65.82;99784.94;4978174;28;97056;-83
2021/05/19 01:11:13;;;;;;;8.00;4.80;;;;;;;12.00;66.53;99786.38;4993445;28;98481;-83
2021/05/19 01:13:44;;;;;;;6.85;4.82;;;;;;;11.98;66.17;99782.97;4979579;28;96686;-83
2021/05/19 01:16:10;;;;;;;;;;;;;;;11.93;66.53;99782.38;4997010;28;96560;-83
2021/05/19 01:18:37;;;;;;;9.43;4.68;;;;;;;11.89;66.84;99779.00;4994242;28;99671;-82
2021/05/19 01:21:03;;;;;;;6.65;4.90;;;;;;;11.87;66.53;99783.50;4995035;28;97444;-82
2021/05/19 01:23:32;;;;;;;6.90;4.78;;;;;;;11.84;66.75;99783.63;4978546;28;96602;-82
2021/05/19 01:26:00;;;;;;;7.35;4.63;;;;;;;11.77;66.96;99783.03;4978598;28;97264;-84
2021/05/19 01:28:26;;;;;;;8.32;5.25;;;;;;;11.73;67.17;99792.00;4961834;28;99155;-82
2021/05/19 01:30:52;;;;;;;12.70;5.63;;;;;;;11.71;67.11;99785.97;4996328;28;99666;-82
2021/05/19 01:33:18;;;;;;;7.05;4.85;;;;;;;11.76;66.94;99789.25;4980659;28;97030;-82
2021/05/19 01:35:44;;;;;;;7.85;4.90;;;;;;;11.84;66.75;99782.75;4996241;28;97465;-82
2021/05/19 01:38:10;;;;;;;7.15;4.97;;;;;;;11.79;66.34;99781.19;4980694;28;96883;-82
2021/05/19 01:40:36;;;;;;;7.28;4.57;;;;;;;11.71;66.56;99785.97;4995047;28;99516;-83
2021/05/19 01:43:03;;;;;;;11.07;5.20;;;;;;;11.71;67.23;99780.72;4963700;28;96558;-82
2021/05/19 01:45:52;;;;;;;7.75;4.93;;;;;;;11.74;67.27;99791.09;4980042;28;96537;-81
2021/05/19 01:48:18;;;;;;;7.97;5.35;;;;;;;11.65;67.39;99785.41;4996746;28;98884;-82
2021/05/19 01:50:44;;;;;;;7.13;5.18;;;;;;;11.60;67.51;99790.03;4962798;28;99678;-82
2021/05/19 01:53:11;;;;;;;12.25;5.95;;;;;;;11.66;67.09;99793.22;4997504;28;96493;-79
2021/05/19 01:55:37;;;;;;;7.45;5.15;;;;;;;11.76;67.20;99793.66;4964077;28;96521;-81
2021/05/19 01:58:03;;;;;;;7.43;5.50;;;;;;;11.75;67.33;99803.31;4964281;28;99357;-79
2021/05/19 02:00:30;;;;;;;6.07;4.78;;;;;;;11.78;67.28;99805.81;4963461;28;99473;-81
2021/05/19 02:02:56;;;;;;;8.93;5.45;;;;;;;11.84;67.03;99801.16;4963864;28;97104;-81
2021/05/19 02:05:24;;;;;;;9.77;5.75;;;;;;;11.87;66.84;99812.44;4980118;28;96622;-82
2021/05/19 02:07:50;;;;;;;6.45;5.22;;;;;;;11.73;67.43;99799.91;4961859;28;99226;-82
2021/05/19 02:10:17;;;;;;;8.70;5.75;;;;;;;11.66;67.95;99805.50;4978664;28;99272;-81
2021/05/19 02:12:42;;;;;;;8.30;5.55;;;;;;;11.66;67.94;99808.13;4982213;28;96550;-81
2021/05/19 02:15:11;;;;;;;7.80;5.95;;;;;;;11.67;67.74;99807.22;5000496;28;96486;-81
2021/05/19 02:17:37;;;;;;;8.48;6.35;;;;;;;11.71;67.77;99816.66;4966232;28;100912;-80
2021/05/19 02:20:13;;;;;;;9.32;6.25;;;;;;;11.68;67.83;99808.94;5000612;28;99233;-80
2021/05/19 02:22:40;;;;;;;9.00;6.47;;;;;;;11.72;68.65;99808.72;4969172;28;97032;-80
2021/05/19 02:25:07;;;;;;;9.43;6.53;;;;;;;11.75;68.49;99807.69;4985081;28;96539;-82
2021/05/19 02:27:33;;;;;;;10.30;7.28;;;;;;;11.79;68.27;99807.50;4966841;28;98838;-81
2021/05/19 02:30:00;;;;;;;10.48;7.03;;;;;;;11.79;68.53;99802.25;4967356;28;99645;-81
2021/05/19 02:32:27;;;;;;;10.25;7.93;;;;;;;11.81;68.69;99799.56;4967473;28;96788;-80
2021/05/19 02:34:54;;;;;;;11.25;7.38;;;;;;;11.87;68.82;99804.56;4983690;28;96513;-81
2021/05/19 02:37:19;;;;;;;11.00;7.65;;;;;;;11.86;68.87;99804.59;4982893;28;99651;-82
2021/05/19 02:39:46;;;;;;;11.88;8.40;;;;;;;11.86;68.96;99807.25;4999912;28;99573;-83
2021/05/19 02:42:12;;;;;;;12.23;8.27;;;;;;;11.92;69.04;99806.94;4965856;28;96613;-82
2021/05/19 02:44:38;;;;;;;9.38;8.23;;;;;;;11.95;68.87;99812.06;4965208;28;96930;-84
2021/05/19 02:47:04;;;;;;;10.30;8.90;;;;;;;11.95;68.74;99809.44;4998015;28;96711;-82
2021/05/19 02:49:30;;;;;;;13.77;7.85;;;;;;;12.02;68.75;99807.38;4996646;28;99724;-81
2021/05/19 02:51:55;;;;;;;11.07;8.57;;;;;;;12.02;68.86;99802.13;4965374;28;96746;-82
2021/05/19 02:54:21;;;;;;;14.10;8.43;;;;;;;12.06;68.59;99811.56;4982421;28;96805;-82
2021/05/19 02:56:46;;;;;;;12.35;9.57;;;;;;;11.94;68.98;99808.59;4980067;28;97313;-84
2021/05/19 02:59:12;;;;;;;16.17;9.07;;;;;;;11.96;69.19;99816.41;4964512;28;99226;-82
2021/05/19 03:01:38;;;;;;;12.63;9.77;;;;;;;11.89;69.09;99812.34;4981318;28;97109;-82
2021/05/19 03:04:03;;;;;;;15.30;11.02;;;;;;;11.91;68.99;99811.34;4965158;28;97015;-80
2021/05/19 03:06:29;;;;;;;15.48;10.75;;;;;;;11.77;69.57;99813.75;4981550;28;96851;-80
2021/05/19 03:08:55;;;;;;;13.63;9.55;;;;;;;11.74;69.68;99820.00;4997382;28;99374;-82
2021/05/19 03:11:21;;;;;;;17.08;10.80;;;;;;;11.90;68.92;99819.34;4982208;28;96481;-81
2021/05/19 03:13:46;;;;;;;15.63;10.23;;;;;;;11.96;69.14;99824.31;4997483;28;96954;-82
2021/05/19 03:16:12;;;;;;;14.85;10.50;;;;;;;12.01;68.60;99827.53;4996676;28;96718;-82
2021/05/19 03:18:38;;;;;;;16.75;10.82;;;;;;;12.13;68.32;99826.09;4997073;28;100329;-83
2021/05/19 03:21:04;;;;;;;18.30;11.23;;;;;;;12.09;68.69;99830.66;4983173;28;96730;-83
2021/05/19 03:23:30;;;;;;;17.05;11.85;;;;;;;12.02;68.97;99823.16;4983566;28;96864;-81
2021/05/19 03:25:56;;;;;;;19.13;11.35;;;;;;;12.03;69.15;99835.38;4999198;28;97326;-83
2021/05/19 03:28:21;;;;;;;14.48;10.63;;;;;;;12.19;68.46;99839.84;4965917;28;99153;-82
2021/05/19 03:30:47;;;;;;;14.70;10.23;;;;;;;12.21;68.53;99845.84;4982676;28;96897;-84
2021/05/19 03:33:13;;;;;;;12.60;10.27;;;;;;;12.27;67.89;99847.34;4983488;28;97232;-83
2021/05/19 03:35:39;;;;;;;15.48;10.23;;;;;;;12.32;68.59;99849.75;4982656;28;99424;-83
2021/05/19 03:38:05;;;;;;;15.30;9.43;;;;;;;12.39;68.40;99849.41;4981380;28;99486;-83
2021/05/19 03:40:31;;;;;;;13.98;9.43;;;;;;;12.48;67.99;99855.13;4965816;28;96692;-83
2021/05/19 03:42:57;;;;;;;13.45;9.15;;;;;;;12.50;68.13;99850.63;4965403;28;96906;-83
2021/05/19 03:45:24;;;;;;;10.95;8.93;;;;;;;12.53;68.52;99853.97;4965148;28;100549;-83
2021/05/19 03:47:52;;;;;;;13.30;9.55;;;;;;;12.52;68.11;99851.41;4998401;28;96764;-84
2021/05/19 03:50:24;;;;;;;15.75;8.73;;;;;;;12.56;68.17;99850.31;4966457;28;97205;-84
2021/05/19 03:52:51;;;;;;;14.45;9.35;;;;;;;12.53;68.92;99850.47;4965991;28;97098;-83
2021/05/19 03:55:17;;;;;;;11.88;9.35;;;;;;;12.54;68.74;99852.22;4965406;28;99346;-84
2021/05/19 03:57:42;;;;;;;14.20;9.98;;;;;;;12.55;68.75;99857.38;4964028;28;100487;-84
2021/05/19 04:00:15;;;;;;;11.23;8.70;;;;;;;12.64;68.86;99856.06;4964977;28;96994;-85
2021/05/19 04:02:45;;;;;;;14.57;8.43;;;;;;;12.70;68.60;99853.13;4980640;28;96603;-85
2021/05/19 04:05:11;;;;;;;11.35;8.25;;;;;;;12.75;68.51;99852.91;4964475;28;100684;-85
2021/05/19 04:07:36;;;;;;;11.20;8.63;;;;;;;12.80;68.27;99857.03;4997189;28;97959;-82
2021/05/19 04:10:02;;;;;;;15.13;8.43;;;;;;;12.77;68.31;99853.66;4980194;28;96486;-86
2021/05/19 04:12:28;;;;;;;14.00;8.45;;;;;;;12.86;68.54;99861.97;4963789;28;97554;-85
2021/05/19 04:14:54;;;;;;;12.93;8.30;;;;;;;13.00;68.33;99863.91;4963153;28;101838;-85
2021/05/19 04:17:19;;;;;;;11.10;8.13;;;;;;;13.00;68.27;99856.00;4980058;28;97727;-85
2021/05/19 04:19:45;;;;;;;17.98;8.18;;;;;;;13.01;68.42;99860.34;4962995;28;97580;-85
2021/05/19 04:22:10;;;;;;;13.88;9.38;;;;;;;13.13;67.52;99864.97;4997084;28;96760;-86
2021/05/19 04:24:36;;;;;;;13.40;8.57;;;;;;;13.12;67.91;99868.53;4978134;28;98092;-83
2021/05/19 04:27:02;;;;;;;12.60;7.78;;;;;;;13.12;68.14;99865.06;4975857;28;99022;-85
2021/05/19 04:29:27;;;;;;;10.98;7.60;;;;;;;13.13;68.32;99864.13;4972228;28;97029;-86
2021/05/19 04:31:53;;;;;;;13.88;7.80;;;;;;;13.17;67.81;99872.72;4975701;28;97064;-85
2021/05/19 04:34:18;;;;;;;11.90;6.30;;;;;;;13.20;67.74;99877.81;4987342;28;100620;-86
2021/05/19 04:36:44;;;;;;;14.40;7.45;;;;;;;13.19;67.47;99874.34;4977142;28;100330;-85
2021/05/19 04:39:10;;;;;;;11.20;7.05;;;;;;;13.20;67.73;99870.75;4978077;28;97590;-85
2021/05/19 04:41:36;;;;;;;10.10;7.03;;;;;;;13.25;67.77;99867.91;4979154;28;97107;-82
2021/05/19 04:44:02;;;;;;;9.35;6.63;;;;;;;13.33;67.18;99873.66;4978372;28;101540;-86
2021/05/19 04:46:27;;;;;;;13.23;7.32;;;;;;;13.38;67.71;99866.38;4976370;28;100984;-86
2021/05/19 04:48:55;;;;;;;10.40;7.50;;;;;;;13.43;67.30;99871.38;4977095;28;96934;-86
2021/05/19 04:51:23;;;;;;;8.00;5.93;;;;;;;13.57;67.18;99871.50;4980408;28;96836;-85
2021/05/19 04:53:49;;;;;;;14.52;6.68;;;;;;;13.80;66.53;99872.91;4962783;28;101404;-85
2021/05/19 04:56:14;;;;;;;8.77;6.28;;;;;;;14.24;65.47;99880.16;4977619;28;97473;-86
2021/05/19 04:58:40;;;;;;;9.32;6.63;;;;;;;14.66;64.52;99881.31;4976894;28;96737;-83
2021/05/19 05:01:05;;;;;;;8.05;6.07;;;;;;;14.67;64.60;99880.38;4961780;28;97139;-86
2021/05/19 05:03:31;;;;;;;12.05;6.10;;;;;;;14.87;63.96;99880.06;4977282;28;101592;-86
2021/05/19 05:05:58;;;;;;;8.10;5.72;;;;;;;15.09;63.15;99886.72;4960291;28;100527;-85
2021/05/19 05:08:23;;;;;;;10.10;6.28;;;;;;;15.38;62.33;99893.75;4978055;28;96758;-86
2021/05/19 05:10:49;;;;;;;10.63;6.50;;;;;;;15.43;61.64;99892.63;4995015;28;96770;-83
2021/05/19 05:13:15;;;;;;;8.75;6.18;;;;;;;15.47;61.66;99894.97;4977273;28;98490;-85
2021/05/19 05:15:40;;;;;;;8.98;6.43;;;;;;;15.42;62.25;99891.78;4993494;28;98222;-83
2021/05/19 05:18:06;;;;;;;6.70;5.40;;;;;;;15.33;62.09;99906.41;4986040;28;96812;-84
2021/05/19 05:20:31;;;;;;;7.82;5.63;;;;;;;15.20;61.69;99894.03;4976060;28;97051;-85
2021/05/19 05:22:57;;;;;;;8.18;5.38;;;;;;;15.11;61.89;99901.56;4975270;28;100637;-84
2021/05/19 05:25:23;;;;;;;7.70;5.28;;;;;;;15.02;62.38;99899.47;4960769;28;99588;-84
2021/05/19 05:27:49;;;;;;;7.95;6.28;;;;;;;14.99;62.27;99898.78;4996169;28;96553;-83
2021/05/19 05:30:16;;;;;;;8.60;5.20;;;;;;;14.84;62.47;99904.03;4995387;28;96945;-84
2021/05/19 05:32:42;;;;;;;9.90;4.80;;;;;;;14.75;62.71;99915.13;4977987;28;98773;-85
2021/05/19 05:35:08;;;;;;;8.13;4.90;;;;;;;14.71;62.83;99914.44;4978636;28;97843;-86
2021/05/19 05:37:34;;;;;;;10.82;5.20;;;;;;;14.80;62.58;99918.34;4979130;28;96901;-86
2021/05/19 05:40:00;;;;;;;9.40;5.32;;;;;;;14.79;62.26;99913.16;4978332;28;96879;-86
2021/05/19 05:42:28;;;;;;;6.38;4.90;;;;;;;14.89;62.25;99925.75;4978775;28;99797;-85
2021/05/19 05:44:53;;;;;;;6.18;4.63;;;;;;;15.12;61.27;99915.59;4961598;28;99306;-85
2021/05/19 05:47:19;;;;;;;8.02;4.95;;;;;;;15.20;61.18;99917.81;4981587;28;96627;-86
2021/05/19 05:49:45;;;;;;;7.30;5.15;;;;;;;15.27;61.26;99927.06;4979056;28;98305;-85
2021/05/19 05:52:10;;;;;;;9.10;5.00;;;;;;;15.30;61.04;99925.13;4964777;28;101838;-86
2021/05/19 05:54:36;;;;;;;7.80;4.80;;;;;;;15.19;61.84;99932.81;4978657;28;98246;-85
2021/05/19 05:57:02;;;;;;;13.30;5.00;;;;;;;15.17;61.56;99930.25;4980572;28;96839;-85
2021/05/19 05:59:29;;;;;;;9.02;5.63;;;;;;;15.14;61.41;99930.44;4964786;28;97201;-85
2021/05/19 06:01:55;;;;;;;8.45;4.63;;;;;;;15.14;61.51;99930.44;4978623;28;100453;-85
2021/05/19 06:04:20;;;;;;;7.53;4.80;;;;;;;15.18;61.89;99931.09;4989319;28;100716;-84
2021/05/19 06:06:46;;;;;;;7.55;4.55;;;;;;;15.45;60.90;99931.28;4969068;28;96735;-83
2021/05/19 06:09:11;;;;;;;10.02;4.55;;;;;;;16.39;59.12;99933.41;4977326;28;96616;-83
2021/05/19 06:11:37;;;;;;;6.88;4.25;;;;;;;18.45;54.32;99937.03;4961898;28;100902;-82
2021/05/19 06:14:03;;;;;;;7.25;4.30;;;;;;;17.46;55.65;99942.22;4998167;28;97942;-85
2021/05/19 06:16:28;;;;;;;7.90;4.35;;;;;;;17.02;56.90;99935.50;4966457;28;96638;-82
2021/05/19 06:18:54;;;;;;;7.28;4.72;;;;;;;17.53;56.05;99945.31;4979548;28;97402;-82
2021/05/19 06:21:19;;;;;;;10.43;4.55;;;;;;;18.30;54.11;99933.66;4963851;28;100117;-82
2021/05/19 06:23:45;;;;;;;14.68;5.28;;;;;;;19.98;51.07;99935.19;4996205;28;97794;-84
2021/05/19 06:26:10;;;;;;;5.18;3.50;;;;;;;20.19;49.36;99938.00;4971325;28;96882;-84
2021/05/19 06:28:36;;;;;;;7.13;3.95;;;;;;;20.35;48.87;99935.78;4964284;28;96931;-84
2021/05/19 06:31:02;;;;;;;9.40;3.85;;;;;;;19.94;49.77;99933.75;4976339;28;101197;-84
2021/05/19 06:33:27;;;;;;;4.22;3.30;;;;;;;19.94;49.14;99933.75;4996660;28;100563;-83
2021/05/19 06:35:53;;;;;;;4.47;3.30;;;;;;;22.75;44.47;99920.66;4963339;28;96951;-84
2021/05/19 06:38:18;;;;;;;6.00;3.53;;;;;;;21.65;45.68;99921.41;4964272;28;97287;-82
2021/05/19 06:40:44;;;;;;;4.35;3.65;;;;;;;21.45;46.63;99931.13;4960173;28;101398;-83
2021/05/19 06:43:09;;;;;;;11.75;4.43;;;;;;;22.05;45.21;99927.75;4960909;28;101337;-84
2021/05/19 06:45:35;;;;;;;5.60;4.07;;;;;;;22.52;44.56;99928.06;4995084;28;97437;-84
2021/05/19 06:48:01;;;;;;;6.47;3.42;;;;;;;23.06;43.00;99924.03;4969078;28;97443;-83
2021/05/19 06:50:27;;;;;;;5.60;3.45;;;;;;;22.26;44.61;99928.59;4991910;28;97870;-83
2021/05/19 06:52:53;;;;;;;4.03;3.00;;;;;;;24.66;40.42;99923.03;4978776;28;101067;-83
2021/05/19 06:55:19;;;;;;;4.93;2.83;;;;;;;25.52;38.10;99930.50;4980362;28;96888;-84
2021/05/19 06:57:45;;;;;;;10.50;7.35;;;;;;;26.92;36.97;99921.13;4963449;28;97101;-83
2021/05/19 07:00:12;;;;;;;5.30;2.67;;;;;;;26.24;36.46;99919.44;4980269;28;101798;-86
2021/05/19 07:02:38;;;;;;;3.53;2.80;;;;;;;27.40;35.22;99920.31;4963275;28;100207;-84
2021/05/19 07:05:06;;;;;;;6.07;2.83;;;;;;;26.80;35.03;99912.53;4978429;28;97075;-84
2021/05/19 07:07:31;;;;;;;6.97;6.45;;;;;;;25.97;35.85;99918.66;4963369;28;97218;-84
2021/05/19 07:09:57;;;;;;;6.85;6.15;;;;;;;23.65;38.96;99920.28;4977044;28;101400;-82
2021/05/19 07:12:23;;;;;;;6.93;6.28;;;;;;;22.71;41.16;99919.22;4975321;28;98146;-84
2021/05/19 07:14:55;;;;;;;7.20;6.53;;;;;;;22.09;42.13;99930.03;4977227;28;96975;-83
2021/05/19 07:17:20;;;;;;;11.13;7.03;;;;;;;21.73;42.71;99925.22;4979887;28;96982;-85
2021/05/19 07:19:46;;;;;;;6.93;6.28;;;;;;;21.95;42.36;99919.72;4960277;28;100486;-84
2021/05/19 07:22:12;;;;;;;9.50;8.70;;;;;;;24.75;38.00;99922.09;4977535;28;100961;-82
2021/05/19 07:24:37;;;;;;;3.25;2.70;;;;;;;24.23;38.36;99926.38;4958556;28;97102;-82
2021/05/19 07:27:04;;;;;;;4.20;2.80;;;;;;;23.33;40.30;99922.44;4961096;28;96945;-86
2021/05/19 07:29:30;;;;;;;11.60;8.00;;;;;;;25.68;36.66;99924.38;4961975;28;101089;-85
2021/05/19 07:31:58;;;;;;;5.78;3.03;;;;;;;27.48;34.31;99916.75;4976776;28;101199;-85
2021/05/19 07:34:23;;;;;;;4.85;2.78;;;;;;;28.26;32.56;99917.88;4976033;28;96690;-81
2021/05/19 07:36:49;;;;;;;4.80;2.42;;;;;;;29.19;31.61;99909.66;4970914;28;97010;-81
2021/05/19 07:39:15;;;;;;;4.75;2.30;;;;;;;27.36;32.99;99908.19;4974819;28;99807;-79
2021/05/19 07:41:40;;;;;;;2.70;2.20;;;;;;;27.29;31.42;99912.56;4966958;28;101391;-78
2021/05/19 07:44:06;;;;;;;4.45;2.03;;;;;;;25.66;34.43;99919.16;4969912;28;97171;-83
2021/05/19 07:46:33;;;;;;;6.95;2.17;;;;;;;24.98;35.93;99910.91;4982153;28;96995;-79
2021/05/19 07:48:58;;;;;;;5.75;2.45;;;;;;;24.30;37.58;99914.06;4990234;28;98342;-81
2021/05/19 07:51:24;;;;;;;4.85;2.55;;;;;;;23.37;37.96;99911.31;4964843;28;101769;-79
2021/05/19 07:53:50;;;;;;;5.45;2.05;;;;;;;22.66;39.29;99913.44;4957496;28;96774;-79
2021/05/19 07:56:52;;;;;;;3.55;2.13;;;;;;;22.30;40.15;99911.28;4976411;28;97313;-78
2021/05/19 07:59:10;;;;;;;3.40;1.90;;;;;;;21.58;40.64;99916.72;4987446;28;98498;-79
2021/05/19 08:04:07;;;;;;;6.38;2.13;;;;;;;20.70;41.88;99918.75;4974661;28;96917;-78
2021/05/19 08:06:34;;;;;;;4.47;2.40;;;;;;;20.46;42.75;99924.25;4979369;28;96852;-81
2021/05/19 08:09:00;;;;;;;7.25;2.88;;;;;;;19.85;47.71;99923.84;4977110;28;101349;-81
2021/05/19 08:11:26;;;;;;;8.05;3.00;;;;;;;19.59;47.57;99921.38;4962320;28;101429;-81
2021/05/19 08:13:51;;;;;;;4.45;2.20;;;;;;;19.48;47.00;99917.84;4968899;28;96702;-81
2021/05/19 08:16:17;;;;;;;10.18;9.18;;;;;;;18.92;47.87;99923.88;4975989;28;96861;-81
2021/05/19 08:18:43;;;;;;;6.60;6.10;;;;;;;18.78;47.85;99925.72;4962658;28;101671;-85
2021/05/19 08:21:10;;;;;;;8.07;6.30;;;;;;;18.65;47.54;99927.59;4978221;28;101562;-78
2021/05/19 08:23:36;;;;;;;8.80;7.93;;;;;;;18.47;47.97;99929.78;4995084;28;96625;-78
2021/05/19 08:26:04;;;;;;;10.15;9.07;;;;;;;18.14;48.75;99934.88;4977171;28;96884;-78
2021/05/19 08:28:32;;;;;;;8.27;6.57;;;;;;;18.09;48.25;99944.03;4977591;28;97445;-78
2021/05/19 08:30:58;;;;;;;8.25;7.47;;;;;;;18.19;48.21;99946.03;4960627;28;100970;-79
2021/05/19 08:33:23;;;;;;;3.35;2.22;;;;;;;17.90;49.39;99946.28;4965011;28;97203;-81
2021/05/19 08:35:49;;;;;;;3.90;2.42;;;;;;;17.72;49.77;99945.75;4991899;28;96929;-81
2021/05/19 08:38:15;;;;;;;3.38;1.60;;;;;;;17.50;51.38;99948.16;4995943;28;99096;-81
2021/05/19 08:40:40;;;;;;;4.80;1.83;;;;;;;17.32;51.47;99945.81;4961222;28;101404;-81
2021/05/19 08:43:06;;;;;;;5.13;1.60;;;;;;;17.45;51.93;99947.63;4961416;28;97062;-81
2021/05/19 08:45:32;;;;;;;7.47;2.03;;;;;;;17.18;52.64;99951.22;4978359;28;96972;-80
2021/05/19 08:48:03;;;;;;;11.13;2.45;;;;;;;17.22;53.75;99955.38;4961005;28;101145;-81
2021/05/19 08:50:32;;;;;;;10.20;2.03;;;;;;;17.18;54.53;99951.22;4990399;28;101320;-80
2021/05/19 08:52:58;;;;;;;7.90;2.55;;;;;;;18.06;52.31;99943.38;4988051;28;96747;-81
2021/05/19 08:55:24;;;;;;;9.60;2.50;;;;;;;18.41;52.30;99932.03;4975213;28;97234;-80
2021/05/19 08:57:50;;;;;;;4.00;2.50;;;;;;;19.40;50.81;99929.94;4984431;28;101346;-80
2021/05/19 09:00:16;;;;;;;3.22;1.90;;;;;;;20.73;47.03;99922.97;4963949;28;101614;-82
2021/05/19 09:03:20;;;;;;;3.70;1.90;;;;;;;21.59;44.21;99929.13;4957987;28;96858;-80
2021/05/19 09:05:49;;;;;;;4.32;2.00;;;;;;;22.86;41.08;99925.00;4988158;28;97144;-82
2021/05/19 09:08:19;;;;;;;2.40;1.92;;;;;;;24.34;38.68;99926.19;4971190;28;98845;-78
2021/05/19 09:11:01;;;;;;;3.30;1.77;;;;;;;25.01;38.50;99919.50;5006786;27;98463;-81
2021/05/19 09:13:44;;;;;;;3.92;1.58;;;;;;;24.50;39.36;99917.53;4992343;28;96881;-78
2021/05/19 09:16:10;;;;;;;3.55;1.30;;;;;;;23.92;37.90;99910.59;4971162;28;97377;-79
2021/05/19 09:18:54;;;;;;;6.75;1.60;;;;;;;24.10;37.62;99916.84;4956358;28;101709;-83
2021/05/19 09:21:40;;;;;;;2.65;1.70;;;;;;;25.01;36.66;99919.50;4956851;28;99333;-84
2021/05/19 09:24:11;;;;;;;2.88;1.60;;;;;;;24.27;38.21;99917.06;4987101;28;97161;-84
2021/05/19 09:26:59;;;;;;;6.00;1.50;;;;;;;23.82;38.81;99926.72;4985228;28;97209;-87
2021/05/19 09:29:37;;;;;;;2.20;1.60;;;;;;;23.83;39.28;99920.38;4982200;28;101465;-83
2021/05/19 09:32:04;;;;;;;3.45;1.77;;;;;;;23.28;38.76;99920.22;4989606;28;101421;-90
2021/05/19 09:34:32;;;;;;;2.95;1.60;;;;;;;23.34;39.40;99913.44;4993706;28;97097;-83
2021/05/19 09:37:18;;;;;;;3.50;1.52;;;;;;;23.08;38.82;99919.38;4960930;28;96853;-81
2021/05/19 09:39:50;;;;;;;20.85;2.58;;;;;;;22.72;40.08;99911.06;5008152;28;98574;-84
2021/05/19 09:42:21;;;;;;;9.48;2.88;;;;;;;23.27;40.25;99906.00;4992696;28;101493;-85
2021/05/19 09:44:48;;;;;;;9.18;2.63;;;;;;;23.43;39.17;99899.19;4993354;28;97122;-84
2021/05/19 09:47:43;;;;;;;8.98;1.83;;;;;;;23.45;38.95;99905.25;4962142;28;96803;-85
2021/05/19 09:50:14;;;;;;;5.65;1.92;;;;;;;23.61;38.76;99904.63;4993123;28;101732;-86
2021/05/19 09:53:00;;;;;;;4.53;1.33;;;;;;;23.35;37.12;99899.88;4975225;28;101490;-85
2021/05/19 09:55:26;;;;;;;7.47;1.58;;;;;;;23.43;38.08;99896.50;4978525;28;96975;-85
2021/05/19 09:57:52;;;;;;;9.80;2.40;;;;;;;23.36;39.42;99896.25;4995375;28;96824;-85
2021/05/19 10:00:23;;;;;;;7.15;1.40;;;;;;;23.49;38.31;99895.91;4961123;28;100922;-85
2021/05/19 10:02:50;;;;;;;3.22;1.80;;;;;;;23.54;37.74;99898.19;4975016;28;99618;-84
2021/05/19 10:05:27;;;;;;;2.22;1.35;;;;;;;23.70;37.42;99899.25;4976538;28;97164;-85
2021/05/19 10:07:55;;;;;;;4.90;2.13;;;;;;;23.76;36.60;99896.97;4985670;28;97101;-85
2021/05/19 10:10:24;;;;;;;2.97;1.80;;;;;;;23.62;37.52;99899.13;4977574;28;102241;-85
2021/05/19 10:12:50;;;;;;;2.63;1.38;;;;;;;23.44;39.15;99888.31;4984088;28;97955;-85
2021/05/19 10:15:26;;;;;;;3.20;1.80;;;;;;;23.18;39.34;99892.59;4988516;28;96589;-85
2021/05/19 10:17:57;;;;;;;3.75;1.73;;;;;;;22.81;38.20;99887.97;4961957;28;96885;-85
2021/05/19 10:20:25;;;;;;;3.30;1.60;;;;;;;22.47;39.71;99888.38;4976505;28;101632;-86
2021/05/19 10:22:52;;;;;;;3.38;1.52;;;;;;;21.89;38.83;99891.72;4967570;28;101322;-86
2021/05/19 10:25:35;;;;;;;4.88;1.70;;;;;;;21.64;40.15;99886.81;4996887;28;97238;-85
2021/05/19 10:28:02;;;;;;;5.80;1.70;;;;;;;21.75;41.89;99885.88;5000425;28;96594;-86
2021/05/19 10:30:34;;;;;;;4.30;1.58;;;;;;;21.73;41.72;99891.38;4980790;28;100557;-84
2021/05/19 10:33:00;;;;;;;6.30;2.05;;;;;;;21.56;41.97;99890.19;5015938;28;101502;-84
2021/05/19 10:35:36;;;;;;;4.82;1.70;;;;;;;21.51;41.52;99902.22;5001670;28;96568;-86
2021/05/19 10:38:16;;;;;;;2.50;1.60;;;;;;;21.45;41.14;99891.09;4984841;28;97069;-87
2021/05/19 10:40:53;;;;;;;4.00;1.60;;;;;;;21.66;40.01;99884.88;4979289;28;100323;-84
2021/05/19 10:43:19;;;;;;;2.15;1.40;;;;;;;21.83;41.86;99886.06;4989629;28;101320;-84
2021/05/19 10:45:59;;;;;;;1.83;1.42;;;;;;;21.92;40.33;99883.41;5003356;28;97079;-84
2021/05/19 10:48:30;;;;;;;4.55;1.40;;;;;;;21.83;40.72;99878.06;4966992;28;96756;-84
2021/05/19 10:51:03;;;;;;;1.95;1.58;;;;;;;21.64;40.87;99884.16;4984364;28;98100;-84
2021/05/19 10:59:16;;;;;;;2.47;1.23;;;;;;;21.27;40.50;99889.13;4992356;28;97269;-84
2021/05/19 11:01:43;;;;;;;2.33;1.55;;;;;;;21.19;41.28;99887.13;4951889;28;101464;-83
2021/05/19 11:04:16;;;;;;;5.00;1.48;;;;;;;21.03;39.70;99876.88;4969344;28;101387;-84
2021/05/19 11:06:57;;;;;;;5.15;1.73;;;;;;;21.03;39.91;99874.22;4995458;28;96717;-83
2021/05/19 11:09:25;;;;;;;7.78;2.10;;;;;;;21.08;38.94;99874.69;4996175;28;97319;-84
2021/05/19 11:11:51;;;;;;;13.20;1.80;;;;;;;20.89;39.81;99867.41;4958346;28;101022;-85
2021/05/19 11:14:44;;;;;;;3.75;1.42;;;;;;;21.27;39.36;99878.47;4977097;28;101375;-85
2021/05/19 11:17:23;;;;;;;5.78;3.50;;;;;;;21.58;39.26;99876.66;4962441;28;97109;-86
2021/05/19 11:19:49;;;;;;;8.93;8.02;;;;;;;21.59;39.16;99871.22;4963987;28;96673;-85
2021/05/19 11:22:15;;;;;;;4.50;2.75;;;;;;;21.61;39.22;99866.59;4967112;28;101339;-86
2021/05/19 11:24:49;;;;;;;3.40;1.85;;;;;;;21.47;39.05;99874.97;4956067;28;100812;-84
2021/05/19 11:27:19;;;;;;;4.50;1.60;;;;;;;21.34;38.85;99871.59;4959064;28;97063;-85
2021/05/19 11:29:46;;;;;;;3.37;1.50;;;;;;;21.14;39.02;99863.47;4958251;28;97137;-84
2021/05/19 11:32:23;;;;;;;2.75;1.30;;;;;;;20.86;38.30;99867.66;4973606;28;100961;-84
2021/05/19 11:34:50;;;;;;;6.75;1.60;;;;;;;20.74;39.14;99871.31;4972723;28;98471;-85
2021/05/19 11:37:16;;;;;;;1.83;1.08;;;;;;;20.66;39.76;99868.47;4976571;28;98010;-85
2021/05/19 11:39:46;;;;;;;4.95;1.80;;;;;;;20.53;40.04;99861.47;4978865;28;98187;-85
2021/05/19 11:42:17;;;;;;;6.07;1.83;;;;;;;20.66;41.15;99857.81;4977909;28;101416;-86
2021/05/19 11:44:43;;;;;;;2.65;1.50;;;;;;;20.43;40.29;99863.19;4978600;28;99431;-85